Time;durP1;ratioP1;P1;durP2;ratioP2;P2;SDS_P1;SDS_P2;PMS_P1;PMS_P2;Temp;Humidity;BMP_temperature;BMP_pressure;BME280_temperature;BME280_humidity;BME280_pressure;Samples;Min_cycle;Max_cycle;Signal;HPM_P1;HPM_P2
2023/01/14 00:01:21;;;;;;;2.35;0.60;;;9.60;99.90;;;;;;10436595;28;20096;-67
2023/01/14 00:06:24;;;;;;;3.03;0.80;;;9.60;99.90;;;;;;10436479;28;20041;-67
2023/01/14 00:16:45;;;;;;;2.42;0.65;;;10.30;99.90;;;;;;10433410;28;20390;-67
2023/01/14 00:21:46;;;;;;;2.78;0.88;;;9.60;99.90;;;;;;10437610;28;20025;-67
2023/01/14 00:26:52;;;;;;;2.50;0.77;;;9.60;99.90;;;;;;10434028;28;20026;-67
2023/01/14 00:31:57;;;;;;;2.83;0.63;;;9.60;99.90;;;;;;10416128;28;20091;-67
2023/01/14 00:36:58;;;;;;;6.03;0.70;;;9.60;99.90;;;;;;10428594;28;20037;-67
2023/01/14 00:41:58;;;;;;;2.80;0.73;;;9.60;99.90;;;;;;10431482;28;20445;-67
2023/01/14 00:46:59;;;;;;;3.13;0.63;;;9.60;99.90;;;;;;10431366;28;20047;-68
2023/01/14 00:52:01;;;;;;;2.22;0.65;;;9.60;99.90;;;;;;10414458;28;20064;-68
2023/01/14 00:57:02;;;;;;;2.40;0.63;;;9.60;99.90;;;;;;10434654;28;20120;-67
2023/01/14 01:02:04;;;;;;;2.58;0.80;;;9.60;99.90;;;;;;10432657;28;20025;-67
2023/01/14 01:07:05;;;;;;;2.50;0.80;;;9.60;99.90;;;;;;10421840;28;20025;-67
2023/01/14 01:12:06;;;;;;;2.10;0.70;;;9.60;99.90;;;;;;10435904;28;20234;-67
2023/01/14 01:17:06;;;;;;;3.47;1.08;;;9.60;99.90;;;;;;10427721;28;20036;-67
2023/01/14 01:22:07;;;;;;;3.03;0.75;;;9.60;99.90;;;;;;10412584;28;20025;-67
2023/01/14 01:27:07;;;;;;;2.17;0.60;;;9.60;99.90;;;;;;10415279;28;20037;-67
2023/01/14 01:32:08;;;;;;;3.60;1.13;;;9.60;99.90;;;;;;10412940;28;20396;-67
2023/01/14 01:37:09;;;;;;;4.10;0.75;;;9.60;99.90;;;;;;10426588;28;20064;-67
2023/01/14 01:42:14;;;;;;;1.55;0.68;;;9.60;99.90;;;;;;10417338;28;20466;-67
2023/01/14 01:47:19;;;;;;;2.35;0.60;;;9.60;99.90;;;;;;10424520;28;20163;-67
2023/01/14 01:52:27;;;;;;;3.95;0.98;;;9.60;99.90;;;;;;10423534;28;20021;-67
2023/01/14 01:57:28;;;;;;;4.28;0.95;;;9.70;99.90;;;;;;10428797;28;20137;-68
2023/01/14 02:02:29;;;;;;;4.93;0.85;;;9.60;99.90;;;;;;10423947;28;20022;-67
2023/01/14 02:07:30;;;;;;;5.00;1.17;;;9.60;99.90;;;;;;10426452;28;20041;-67
2023/01/14 02:12:42;;;;;;;2.53;0.60;;;9.60;99.90;;;;;;10426993;28;20240;-68
2023/01/14 02:18:01;;;;;;;3.33;1.60;;;9.60;99.90;;;;;;10431974;28;20056;-68
2023/01/14 02:23:07;;;;;;;;;;;9.60;99.90;;;;;;10432695;28;20451;-68
2023/01/14 02:28:39;;;;;;;2.60;0.75;;;9.60;99.90;;;;;;10424163;28;19913;-68
2023/01/14 02:33:45;;;;;;;5.63;0.90;;;9.60;99.90;;;;;;10407811;28;20039;-67
2023/01/14 02:39:17;;;;;;;4.35;0.90;;;9.70;99.90;;;;;;10433425;28;20184;-67
2023/01/14 02:44:26;;;;;;;2.80;0.90;;;9.60;99.90;;;;;;10421711;28;20378;-67
2023/01/14 02:49:32;;;;;;;5.18;0.70;;;9.50;99.90;;;;;;10430498;28;20029;-68
2023/01/14 02:54:33;;;;;;;3.17;0.90;;;9.50;99.90;;;;;;10435011;28;20052;-67
2023/01/14 02:59:36;;;;;;;3.63;0.82;;;9.50;99.90;;;;;;10450713;28;20464;-67
2023/01/14 03:04:56;;;;;;;4.82;0.90;;;9.50;99.90;;;;;;10432810;28;20038;-67
2023/01/14 03:10:03;;;;;;;1.40;0.70;;;9.50;99.90;;;;;;10425804;28;20013;-67
2023/01/14 03:15:10;;;;;;;2.45;0.65;;;9.50;99.90;;;;;;10424266;28;20485;-67
2023/01/14 03:20:25;;;;;;;1.52;0.65;;;9.50;99.90;;;;;;10437415;28;20040;-67
2023/01/14 03:25:27;;;;;;;5.03;1.45;;;9.40;99.90;;;;;;10424782;28;20053;-67
2023/01/14 03:30:37;;;;;;;2.53;0.70;;;9.40;99.90;;;;;;10431667;28;20112;-68
2023/01/14 03:35:41;;;;;;;1.10;0.70;;;9.40;99.90;;;;;;10433621;28;20033;-67
2023/01/14 03:40:44;;;;;;;5.15;1.00;;;9.40;99.90;;;;;;10444188;28;20033;-68
2023/01/14 03:45:46;;;;;;;2.95;0.80;;;9.40;99.90;;;;;;10417059;28;20041;-68
2023/01/14 03:51:22;;;;;;;5.78;0.70;;;9.40;99.90;;;;;;10427641;28;20694;-67
2023/01/14 03:56:37;;;;;;;4.22;0.98;;;9.40;99.90;;;;;;10434244;28;20021;-68
2023/01/14 04:01:47;;;;;;;3.53;0.80;;;9.40;99.90;;;;;;10429418;28;20028;-67
2023/01/14 04:06:47;;;;;;;3.45;0.80;;;9.40;99.90;;;;;;10436166;28;20033;-67
2023/01/14 04:11:48;;;;;;;4.43;0.98;;;10.00;99.90;;;;;;10411053;28;20942;-68
2023/01/14 04:16:49;;;;;;;1.55;0.80;;;9.30;99.90;;;;;;10435219;28;20029;-67
2023/01/14 04:21:49;;;;;;;2.42;0.80;;;9.30;99.90;;;;;;10426349;28;20029;-68
2023/01/14 04:26:50;;;;;;;3.60;0.90;;;9.30;99.90;;;;;;10434370;28;20271;-67
2023/01/14 04:31:50;;;;;;;3.42;0.88;;;9.30;99.90;;;;;;10423754;28;20024;-67
2023/01/14 04:36:51;;;;;;;4.30;1.10;;;9.60;99.90;;;;;;10428861;28;20037;-67
2023/01/14 04:47:11;;;;;;;6.50;1.10;;;9.30;99.90;;;;;;10430981;28;20503;-67
2023/01/14 04:52:12;;;;;;;6.40;0.90;;;9.30;99.90;;;;;;10422705;28;20024;-68
2023/01/14 04:57:12;;;;;;;7.38;2.17;;;9.30;99.90;;;;;;10414360;28;20025;-67
2023/01/14 05:02:13;;;;;;;6.63;1.92;;;9.20;99.90;;;;;;10414008;28;20027;-67
2023/01/14 05:07:14;;;;;;;5.82;1.20;;;9.20;99.90;;;;;;10402446;28;20033;-67
2023/01/14 05:12:14;;;;;;;7.20;1.20;;;9.20;99.90;;;;;;10428791;28;20014;-67
2023/01/14 05:17:15;;;;;;;6.45;1.35;;;9.20;99.90;;;;;;10412730;28;20025;-67
2023/01/14 05:22:15;;;;;;;8.75;1.05;;;9.20;99.90;;;;;;10429076;28;20095;-67
2023/01/14 05:27:16;;;;;;;7.78;1.25;;;9.20;99.90;;;;;;10424101;28;20056;-67
2023/01/14 05:32:16;;;;;;;8.52;1.38;;;9.20;99.90;;;;;;10428120;28;20378;-68
2023/01/14 05:37:17;;;;;;;5.07;0.90;;;9.20;99.90;;;;;;10413481;28;20528;-68
2023/01/14 05:47:37;;;;;;;7.80;1.50;;;9.20;99.90;;;;;;10420982;28;20090;-67
2023/01/14 05:52:38;;;;;;;6.70;1.40;;;9.10;99.90;;;;;;10407901;28;20359;-67
2023/01/14 05:57:38;;;;;;;5.55;1.20;;;9.10;99.90;;;;;;10400774;28;20022;-68
2023/01/14 06:08:01;;;;;;;5.70;1.58;;;9.10;99.90;;;;;;10414044;28;20033;-67
2023/01/14 06:13:06;;;;;;;6.82;2.05;;;9.10;99.90;;;;;;10405845;28;20280;-67
2023/01/14 06:18:14;;;;;;;4.55;1.63;;;9.10;99.90;;;;;;10420142;28;20440;-66
2023/01/14 06:23:14;;;;;;;9.55;2.20;;;9.10;99.90;;;;;;10417187;28;20053;-66
2023/01/14 06:28:16;;;;;;;8.18;1.90;;;9.10;99.90;;;;;;10422677;28;20125;-67
2023/01/14 06:33:17;;;;;;;7.15;1.98;;;9.10;99.90;;;;;;10425445;28;20048;-66
2023/01/14 06:38:18;;;;;;;9.93;1.73;;;9.10;99.90;;;;;;10430471;28;20197;-68
2023/01/14 06:43:18;;;;;;;6.15;1.63;;;9.10;99.90;;;;;;10410897;28;20033;-67
2023/01/14 06:48:19;;;;;;;8.63;2.20;;;9.10;99.90;;;;;;10436980;28;20393;-68
2023/01/14 06:53:20;;;;;;;8.20;1.58;;;10.00;99.90;;;;;;10423694;28;20028;-65
2023/01/14 06:58:21;;;;;;;7.97;2.22;;;9.10;99.90;;;;;;10423947;28;20026;-66
2023/01/14 07:03:22;;;;;;;10.45;1.77;;;9.10;99.90;;;;;;10407672;28;20022;-66
2023/01/14 07:08:22;;;;;;;10.20;2.13;;;9.10;99.90;;;;;;10426522;28;20513;-66
2023/01/14 07:13:24;;;;;;;6.20;1.52;;;9.10;99.90;;;;;;10430451;28;20502;-66
2023/01/14 07:18:26;;;;;;;5.40;1.60;;;9.10;99.90;;;;;;10422572;28;20022;-67
2023/01/14 07:23:27;;;;;;;7.82;1.88;;;9.10;99.90;;;;;;10421153;28;20075;-67
2023/01/14 07:28:28;;;;;;;15.77;2.60;;;9.10;99.90;;;;;;10424928;28;20482;-67
2023/01/14 07:33:28;;;;;;;14.45;2.63;;;9.10;99.90;;;;;;10394703;28;20029;-67
2023/01/14 07:38:29;;;;;;;8.57;2.03;;;9.00;99.90;;;;;;10431922;28;20024;-72
2023/01/14 07:43:30;;;;;;;7.80;1.85;;;9.00;99.90;;;;;;10433337;28;20032;-67
2023/01/14 07:48:31;;;;;;;8.27;2.28;;;9.00;99.90;;;;;;10439044;28;20111;-67
2023/01/14 07:53:32;;;;;;;6.50;1.73;;;9.00;99.90;;;;;;10441106;28;20029;-67
2023/01/14 07:58:32;;;;;;;11.75;2.53;;;9.00;99.90;;;;;;10434712;28;20025;-67
2023/01/14 08:03:34;;;;;;;6.75;2.17;;;9.00;99.90;;;;;;10437408;28;20491;-67
2023/01/14 08:08:34;;;;;;;8.75;2.47;;;9.00;99.90;;;;;;10431480;28;20436;-67
2023/01/14 08:13:35;;;;;;;7.60;1.80;;;9.00;99.90;;;;;;10435763;28;20071;-68
2023/01/14 08:18:36;;;;;;;8.10;2.55;;;9.00;99.90;;;;;;10439204;28;20413;-67
2023/01/14 08:23:37;;;;;;;13.50;2.50;;;9.00;99.90;;;;;;10434515;28;20264;-67
2023/01/14 08:28:39;;;;;;;10.18;1.85;;;9.00;99.90;;;;;;10437806;28;20125;-67
2023/01/14 08:33:41;;;;;;;10.65;1.95;;;9.00;99.90;;;;;;10441012;28;20417;-67
2023/01/14 08:38:45;;;;;;;6.80;2.22;;;9.00;99.90;;;;;;10438783;28;20042;-67
2023/01/14 08:43:50;;;;;;;9.38;2.10;;;9.00;99.90;;;;;;10419157;28;20049;-67
2023/01/14 08:48:50;;;;;;;7.18;2.45;;;9.00;99.90;;;;;;10412514;28;20103;-67
2023/01/14 08:53:51;;;;;;;8.25;1.85;;;9.00;99.90;;;;;;10414937;28;20017;-65
2023/01/14 08:58:52;;;;;;;5.57;1.45;;;9.00;99.90;;;;;;10412164;28;20048;-66
2023/01/14 09:03:57;;;;;;;4.47;1.65;;;9.20;99.90;;;;;;10435751;28;20029;-66
2023/01/14 09:19:45;;;;;;;6.22;1.77;;;9.40;99.90;;;;;;10430229;28;20010;-68
2023/01/14 09:24:46;;;;;;;9.80;1.80;;;9.50;99.90;;;;;;10435523;28;20590;-68
2023/01/14 09:29:47;;;;;;;8.13;1.88;;;9.40;99.90;;;;;;10430483;28;20021;-69
2023/01/14 09:34:50;;;;;;;8.35;1.70;;;9.40;99.90;;;;;;10426672;28;20025;-69
2023/01/14 09:39:51;;;;;;;7.07;1.58;;;9.30;99.90;;;;;;10424549;28;20056;-70
2023/01/14 09:45:12;;;;;;;5.82;1.48;;;9.30;99.90;;;;;;10425530;28;20069;-68
2023/01/14 09:50:38;;;;;;;8.20;1.38;;;9.30;99.90;;;;;;10426724;28;20489;-67
2023/01/14 09:55:55;;;;;;;8.60;1.30;;;9.30;99.90;;;;;;10421274;28;20082;-67
2023/01/14 10:01:04;;;;;;;5.13;1.50;;;9.20;99.90;;;;;;10428493;28;20071;-68
2023/01/14 10:06:12;;;;;;;3.28;1.17;;;9.20;99.90;;;;;;10433155;28;20505;-69
2023/01/14 10:11:14;;;;;;;6.57;1.38;;;9.20;99.90;;;;;;10433117;28;20528;-70
2023/01/14 10:16:41;;;;;;;2.00;1.10;;;9.30;99.90;;;;;;10421643;28;20125;-69
2023/01/14 10:21:48;;;;;;;2.75;1.50;;;9.30;99.90;;;;;;10429550;28;20485;-69
2023/01/14 10:26:50;;;;;;;3.70;1.08;;;9.30;99.90;;;;;;10434076;28;20033;-69
2023/01/14 10:32:00;;;;;;;3.85;1.20;;;9.30;99.90;;;;;;10426697;28;20041;-68
2023/01/14 10:37:00;;;;;;;21.40;1.50;;;9.30;99.90;;;;;;10407251;28;20399;-68
2023/01/14 10:42:03;;;;;;;2.85;0.82;;;9.20;99.90;;;;;;10422125;28;20037;-67
2023/01/14 10:47:08;;;;;;;5.70;1.27;;;9.20;99.90;;;;;;10429864;28;20052;-68
2023/01/14 10:52:20;;;;;;;2.50;0.73;;;9.20;99.90;;;;;;10420552;28;20104;-68
2023/01/14 10:57:20;;;;;;;4.00;0.95;;;9.20;99.90;;;;;;10430587;28;20060;-68
2023/01/14 11:02:47;;;;;;;5.07;1.40;;;9.20;99.90;;;;;;10426687;28;20542;-68
2023/01/14 11:07:50;;;;;;;4.10;1.85;;;9.30;99.90;;;;;;10423520;28;20032;-69
2023/01/14 11:13:12;;;;;;;4.63;1.63;;;9.30;99.90;;;;;;10429252;28;20539;-67
2023/01/14 11:18:23;;;;;;;4.50;1.58;;;9.40;99.90;;;;;;10422384;28;20462;-68
2023/01/14 11:23:34;;;;;;;6.15;1.55;;;9.30;99.90;;;;;;10426816;28;20385;-68
2023/01/14 11:28:38;;;;;;;5.03;1.58;;;9.40;99.90;;;;;;10426410;28;20033;-69
2023/01/14 11:33:48;;;;;;;4.10;1.35;;;9.40;99.90;;;;;;10412851;28;20116;-70
2023/01/14 11:38:49;;;;;;;4.13;1.88;;;9.40;99.90;;;;;;10423602;28;20460;-69
2023/01/14 11:43:58;;;;;;;4.32;1.38;;;9.40;99.90;;;;;;10425670;28;20052;-68
2023/01/14 11:49:00;;;;;;;3.65;1.02;;;9.40;99.90;;;;;;10412440;28;20508;-70
2023/01/14 11:54:03;;;;;;;3.15;1.05;;;9.40;99.90;;;;;;10419839;28;20064;-69
2023/01/14 11:59:31;;;;;;;1.80;0.82;;;9.30;99.90;;;;;;10424132;28;20482;-70
2023/01/14 12:04:44;;;;;;;2.90;1.10;;;9.30;99.90;;;;;;10422423;28;20048;-69
2023/01/14 12:10:03;;;;;;;1.40;0.80;;;9.30;99.90;;;;;;10422040;28;20284;-72
2023/01/14 12:20:34;;;;;;;2.75;0.90;;;9.30;99.90;;;;;;10411140;28;20035;-67
2023/01/14 12:25:47;;;;;;;1.90;0.80;;;9.30;99.90;;;;;;10436248;28;20040;-66
2023/01/14 12:30:56;;;;;;;2.22;0.93;;;9.30;99.90;;;;;;10420641;28;20017;-64
2023/01/14 12:36:02;;;;;;;;;;;9.30;99.90;;;;;;10430259;28;20021;-66
2023/01/14 12:46:26;;;;;;;2.00;0.75;;;9.40;99.90;;;;;;10422207;28;20754;-67
2023/01/14 12:51:30;;;;;;;0.80;0.60;;;9.40;99.90;;;;;;10424113;28;20082;-69
2023/01/14 12:56:48;;;;;;;2.55;0.70;;;9.50;99.90;;;;;;10413942;28;20493;-66
2023/01/14 13:02:10;;;;;;;2.58;0.77;;;9.40;99.90;;;;;;10420853;28;20078;-68
2023/01/14 13:07:24;;;;;;;1.75;0.60;;;9.50;99.90;;;;;;10399120;28;20041;-66
2023/01/14 13:12:39;;;;;;;1.92;0.75;;;9.50;99.90;;;;;;10400565;28;20561;-66
2023/01/14 13:22:54;;;;;;;1.63;0.70;;;9.50;99.90;;;;;;12097672;23;20442;-66
2023/01/14 13:28:51;;;;;;;3.25;0.80;;;9.50;99.90;;;;;;10313173;23;20027;-67
2023/01/14 13:39:10;;;;;;;2.38;0.70;;;9.50;99.90;;;;;;10366403;23;20042;-67
2023/01/14 13:44:20;;;;;;;3.03;0.57;;;9.60;99.90;;;;;;10309202;28;20029;-71
2023/01/14 13:49:31;;;;;;;0.68;0.50;;;9.60;99.90;;;;;;10331159;23;20042;-69
2023/01/14 13:54:35;;;;;;;0.93;0.57;;;9.60;99.90;;;;;;10341835;28;20072;-66
2023/01/14 13:59:38;;;;;;;2.58;0.70;;;9.60;99.90;;;;;;10346299;28;20018;-69
2023/01/14 14:04:55;;;;;;;0.50;0.50;;;9.60;99.90;;;;;;10337480;28;20124;-68
2023/01/14 14:10:00;;;;;;;0.70;0.40;;;10.90;99.90;;;;;;10355542;28;20026;-67
2023/01/14 14:15:05;;;;;;;1.25;0.50;;;10.30;99.90;;;;;;10346657;28;20021;-67
2023/01/14 14:20:08;;;;;;;1.30;0.50;;;9.70;99.90;;;;;;10329486;28;20576;-68
2023/01/14 14:25:31;;;;;;;0.90;0.50;;;9.70;99.90;;;;;;10346265;28;20034;-68
2023/01/14 14:30:39;;;;;;;1.30;0.50;;;10.90;99.90;;;;;;10358605;28;20025;-66
2023/01/14 14:35:42;;;;;;;0.60;0.40;;;10.70;99.90;;;;;;10357373;28;20049;-67
2023/01/14 14:40:43;;;;;;;1.02;0.40;;;10.30;99.90;;;;;;10360376;28;20296;-68
2023/01/14 14:45:59;;;;;;;0.63;0.57;;;9.70;99.90;;;;;;10356123;28;20177;-67
2023/01/14 14:51:14;;;;;;;0.82;0.50;;;10.60;99.90;;;;;;10361526;28;20026;-68
2023/01/14 14:56:18;;;;;;;0.63;0.30;;;9.90;99.90;;;;;;10350975;28;20164;-68
2023/01/14 15:01:22;;;;;;;1.00;0.40;;;10.40;99.90;;;;;;10358914;28;20053;-68
2023/01/14 15:06:23;;;;;;;1.02;0.50;;;10.20;99.90;;;;;;10340534;28;20038;-68
2023/01/14 15:11:29;;;;;;;1.10;0.40;;;9.80;99.90;;;;;;10338694;28;20113;-69
2023/01/14 15:16:33;;;;;;;1.15;0.40;;;9.90;99.90;;;;;;10356177;28;20030;-69
2023/01/14 15:21:37;;;;;;;0.65;0.40;;;10.80;99.90;;;;;;10357795;28;20377;-69
2023/01/14 15:26:39;;;;;;;0.50;0.40;;;9.80;99.90;;;;;;10359684;28;20033;-68
2023/01/14 15:31:39;;;;;;;1.50;0.50;;;9.80;99.90;;;;;;10361895;28;20055;-69
2023/01/14 15:36:42;;;;;;;0.60;0.40;;;9.80;99.90;;;;;;10362747;28;20775;-69
2023/01/14 15:41:55;;;;;;;0.90;0.43;;;9.80;99.90;;;;;;10362695;28;20490;-69
2023/01/14 15:46:57;;;;;;;0.80;0.40;;;9.90;99.90;;;;;;10358608;28;20116;-71
2023/01/14 15:51:58;;;;;;;0.60;0.40;;;9.90;99.90;;;;;;10357126;28;20603;-68
2023/01/14 15:57:22;;;;;;;0.80;0.40;;;9.90;99.90;;;;;;10361438;28;20029;-69
2023/01/14 16:02:26;;;;;;;1.52;0.45;;;9.90;99.90;;;;;;10361222;28;20254;-68
2023/01/14 16:07:27;;;;;;;0.82;0.50;;;9.90;99.90;;;;;;10361115;28;20088;-68
2023/01/14 16:12:28;;;;;;;0.90;0.50;;;9.90;99.90;;;;;;10362048;28;20030;-69
2023/01/14 16:17:28;;;;;;;1.15;0.60;;;9.90;99.90;;;;;;10364555;28;20030;-68
2023/01/14 16:22:29;;;;;;;1.00;0.63;;;9.90;99.90;;;;;;10362597;28;20026;-68
2023/01/14 16:27:41;;;;;;;0.80;0.40;;;9.90;99.90;;;;;;10345231;28;20038;-69
2023/01/14 16:32:43;;;;;;;0.85;0.40;;;10.00;99.90;;;;;;10350140;28;20088;-67
2023/01/14 16:37:47;;;;;;;0.77;0.40;;;10.00;99.90;;;;;;10347946;28;20117;-69
2023/01/14 16:42:50;;;;;;;0.50;0.47;;;11.20;99.90;;;;;;10334378;28;20018;-67
2023/01/14 16:47:51;;;;;;;1.67;0.50;;;10.00;99.90;;;;;;10373835;28;20033;-69
2023/01/14 16:52:51;;;;;;;0.80;0.40;;;10.00;99.90;;;;;;10359865;28;20022;-67
2023/01/14 16:57:53;;;;;;;1.25;0.47;;;10.00;99.90;;;;;;10345705;28;20533;-67
2023/01/14 17:02:53;;;;;;;0.70;0.50;;;10.00;99.90;;;;;;10348773;28;20020;-70
2023/01/14 17:07:54;;;;;;;2.08;0.50;;;10.00;99.90;;;;;;10364261;28;20036;-68
2023/01/14 17:12:54;;;;;;;0.73;0.47;;;10.10;99.90;;;;;;10361928;28;20021;-69
2023/01/14 17:17:56;;;;;;;0.50;0.50;;;10.10;99.90;;;;;;10363246;28;20122;-69
2023/01/14 17:22:59;;;;;;;0.57;0.28;;;10.10;99.90;;;;;;10355564;28;20029;-69
2023/01/14 17:28:00;;;;;;;1.85;0.47;;;10.10;99.90;;;;;;10351474;28;20034;-68
2023/01/14 17:33:00;;;;;;;0.93;0.50;;;10.20;99.90;;;;;;10352218;28;20072;-68
2023/01/14 17:38:01;;;;;;;3.35;1.20;;;10.20;99.90;;;;;;10359846;28;20190;-63
2023/01/14 17:43:02;;;;;;;2.35;0.68;;;10.20;99.90;;;;;;10347176;28;20041;-69
2023/01/14 17:48:02;;;;;;;2.25;0.73;;;10.30;99.90;;;;;;10351814;28;20460;-67
2023/01/14 17:53:03;;;;;;;0.80;0.60;;;10.40;99.90;;;;;;10354636;28;20318;-66
2023/01/14 17:58:04;;;;;;;4.00;0.70;;;10.40;99.90;;;;;;10352713;28;20218;-71
2023/01/14 18:03:04;;;;;;;1.48;0.70;;;10.40;99.90;;;;;;10356509;28;20022;-68
2023/01/14 18:08:05;;;;;;;2.25;1.08;;;10.40;99.90;;;;;;10357887;28;20037;-69
2023/01/14 18:13:05;;;;;;;0.95;0.73;;;10.30;99.90;;;;;;10360419;28;20044;-67
2023/01/14 18:18:06;;;;;;;0.73;0.50;;;10.40;99.90;;;;;;10356278;28;20501;-73
2023/01/14 18:23:06;;;;;;;0.60;0.60;;;10.70;99.90;;;;;;10351902;28;20030;-67
2023/01/14 18:28:07;;;;;;;1.35;0.88;;;10.40;99.90;;;;;;10363461;28;20053;-67
2023/01/14 18:33:08;;;;;;;3.70;0.90;;;10.40;99.90;;;;;;10361139;28;20022;-66
2023/01/14 18:38:08;;;;;;;2.15;0.77;;;10.40;99.90;;;;;;10344337;28;20503;-71
2023/01/14 18:43:09;;;;;;;2.55;0.93;;;10.40;99.90;;;;;;10346362;28;20053;-65
2023/01/14 18:48:10;;;;;;;2.58;0.90;;;10.50;99.90;;;;;;10347159;28;20040;-66
2023/01/14 18:53:14;;;;;;;3.28;1.00;;;10.50;99.90;;;;;;10337999;28;20026;-67
2023/01/14 18:58:15;;;;;;;1.85;1.17;;;10.40;99.90;;;;;;10343696;28;20095;-66
2023/01/14 19:03:15;;;;;;;2.30;0.88;;;10.40;99.90;;;;;;10362456;28;20468;-66
2023/01/14 19:08:16;;;;;;;2.30;0.80;;;10.50;99.90;;;;;;10368499;28;20034;-66
2023/01/14 19:13:17;;;;;;;3.35;1.00;;;10.50;99.90;;;;;;10351249;28;20022;-66
2023/01/14 19:18:19;;;;;;;3.20;1.10;;;10.50;99.90;;;;;;10353114;28;20030;-66
2023/01/14 19:23:19;;;;;;;3.50;1.40;;;10.50;99.90;;;;;;10353650;28;20031;-66
2023/01/14 19:28:20;;;;;;;2.40;0.82;;;10.50;99.90;;;;;;10333709;28;20178;-67
2023/01/14 19:33:22;;;;;;;2.35;1.30;;;10.50;99.90;;;;;;10339434;28;20014;-66
2023/01/14 19:38:22;;;;;;;2.78;1.30;;;10.50;99.90;;;;;;10340549;28;20033;-66
2023/01/14 19:43:23;;;;;;;3.08;1.02;;;10.70;99.90;;;;;;10344540;28;20026;-66
2023/01/14 19:48:27;;;;;;;3.15;1.05;;;10.40;99.90;;;;;;10364673;28;20064;-66
2023/01/14 19:53:29;;;;;;;2.58;1.20;;;10.40;99.90;;;;;;10361991;28;20018;-67
2023/01/14 19:58:30;;;;;;;2.85;1.10;;;10.40;99.90;;;;;;10363342;28;20036;-66
2023/01/14 20:03:31;;;;;;;5.57;1.42;;;10.30;99.90;;;;;;10337257;28;20475;-65
2023/01/14 20:08:31;;;;;;;2.70;0.82;;;10.30;99.90;;;;;;10363614;28;20319;-66
2023/01/14 20:13:33;;;;;;;3.33;1.05;;;10.30;99.90;;;;;;10354212;28;20438;-65
2023/01/14 20:18:34;;;;;;;2.45;0.80;;;10.30;99.90;;;;;;10354327;28;20037;-66
2023/01/14 20:23:35;;;;;;;4.00;0.90;;;10.20;99.90;;;;;;10351374;28;20022;-67
2023/01/14 20:28:36;;;;;;;4.25;1.10;;;10.20;99.90;;;;;;10356847;28;20030;-66
2023/01/14 20:33:37;;;;;;;2.78;1.00;;;10.20;99.90;;;;;;10360865;28;20044;-66
2023/01/14 20:38:37;;;;;;;2.20;1.30;;;10.20;99.90;;;;;;10359787;28;20274;-66
2023/01/14 20:43:39;;;;;;;2.53;0.98;;;10.10;99.90;;;;;;10365737;28;20018;-66
2023/01/14 20:48:39;;;;;;;3.40;0.98;;;10.10;99.90;;;;;;10364631;28;20046;-66
2023/01/14 20:53:41;;;;;;;1.55;0.93;;;10.10;99.90;;;;;;10360597;28;20386;-66
2023/01/14 21:03:44;;;;;;;3.33;1.30;;;10.10;99.90;;;;;;10358579;28;20022;-66
2023/01/14 21:08:46;;;;;;;1.98;0.90;;;10.10;99.90;;;;;;10354058;28;20041;-65
2023/01/14 21:24:41;;;;;;;2.60;0.95;;;10.00;99.90;;;;;;10343681;28;20120;-66
2023/01/14 21:29:42;;;;;;;2.35;0.80;;;10.00;99.90;;;;;;10340888;28;20666;-65
2023/01/14 21:34:42;;;;;;;2.05;1.10;;;10.00;99.90;;;;;;10351985;28;20117;-66
2023/01/14 21:39:43;;;;;;;2.03;1.00;;;10.00;99.90;;;;;;10343622;28;20255;-66
2023/01/14 21:44:44;;;;;;;2.67;1.13;;;10.00;99.90;;;;;;10346078;28;20402;-66
2023/01/14 21:49:51;;;;;;;2.22;0.98;;;10.00;99.90;;;;;;10354931;28;20504;-67
2023/01/14 21:54:52;;;;;;;1.98;0.93;;;9.90;99.90;;;;;;10353457;28;20040;-66
2023/01/14 21:59:52;;;;;;;1.63;1.08;;;9.90;99.90;;;;;;10350436;28;20090;-66
2023/01/14 22:04:53;;;;;;;3.00;1.10;;;9.90;99.90;;;;;;10346049;28;20092;-65
2023/01/14 22:09:53;;;;;;;2.15;0.90;;;9.80;99.90;;;;;;10349965;28;20056;-66
2023/01/14 22:14:54;;;;;;;3.75;0.95;;;9.90;99.90;;;;;;10346355;28;20419;-66
2023/01/14 22:19:54;;;;;;;2.15;1.10;;;9.90;99.90;;;;;;10329547;28;20017;-65
2023/01/14 22:24:55;;;;;;;2.15;0.90;;;9.90;99.90;;;;;;10332397;28;20638;-66
2023/01/14 22:29:56;;;;;;;1.98;0.73;;;9.80;99.90;;;;;;10331026;28;20018;-66
2023/01/14 22:34:57;;;;;;;1.60;0.70;;;9.80;99.90;;;;;;10325950;28;20030;-66
2023/01/14 22:39:57;;;;;;;2.83;1.00;;;9.80;99.90;;;;;;10352280;28;20219;-67
2023/01/14 22:44:58;;;;;;;1.52;0.85;;;9.80;99.90;;;;;;10355242;28;20133;-66
2023/01/14 22:49:58;;;;;;;1.25;0.80;;;9.80;99.90;;;;;;10355622;28;20113;-67
2023/01/14 22:54:59;;;;;;;1.30;0.75;;;9.80;99.90;;;;;;10342745;28;20045;-66
2023/01/14 23:00:00;;;;;;;2.28;0.80;;;9.80;99.90;;;;;;10346880;28;20463;-66
2023/01/14 23:05:00;;;;;;;1.30;0.70;;;9.80;99.90;;;;;;10360121;28;20556;-65
2023/01/14 23:10:03;;;;;;;1.67;0.50;;;9.80;99.90;;;;;;10363895;28;20018;-66
2023/01/14 23:15:03;;;;;;;3.38;0.82;;;9.80;99.90;;;;;;10363901;28;20046;-66
2023/01/14 23:23:51;;;;;;;0.80;0.70;;;9.70;99.90;;;;;;10362512;28;20121;-66
2023/01/14 23:25:27;;;;;;;1.83;0.80;;;9.70;99.90;;;;;;10361604;28;20441;-66
2023/01/14 23:30:27;;;;;;;2.95;0.80;;;9.70;99.90;;;;;;10361049;28;20014;-66
2023/01/14 23:35:28;;;;;;;1.17;0.52;;;10.30;99.90;;;;;;10361025;28;20568;-66
2023/01/14 23:40:28;;;;;;;1.95;0.60;;;9.90;99.90;;;;;;10357501;28;20056;-67
2023/01/14 23:45:29;;;;;;;3.78;0.90;;;9.70;99.90;;;;;;10353478;28;20099;-67
2023/01/14 23:50:30;;;;;;;2.47;0.57;;;10.30;99.90;;;;;;10358186;28;20088;-67
2023/01/14 23:55:31;;;;;;;2.60;0.77;;;9.70;99.90;;;;;;10350166;28;20056;-66
